sensor_id;sensor_type;location;lat;lon;timestamp;P1;durP1;ratioP1;P2;durP2;ratioP2
21661;SDS011;10992;48.170;8.596;2023-04-03T00:00:59;14.45;;;11.15;;
21661;SDS011;10992;48.170;8.596;2023-04-03T00:03:26;13.40;;;10.23;;
21661;SDS011;10992;48.170;8.596;2023-04-03T00:05:53;14.82;;;10.57;;
21661;SDS011;10992;48.170;8.596;2023-04-03T00:08:20;14.10;;;10.13;;
21661;SDS011;10992;48.170;8.596;2023-04-03T00:10:47;13.25;;;10.80;;
21661;SDS011;10992;48.170;8.596;2023-04-03T00:13:14;11.73;;;9.35;;
21661;SDS011;10992;48.170;8.596;2023-04-03T00:15:41;12.73;;;10.43;;
21661;SDS011;10992;48.170;8.596;2023-04-03T00:18:09;12.55;;;9.90;;
21661;SDS011;10992;48.170;8.596;2023-04-03T00:20:36;12.57;;;9.98;;
21661;SDS011;10992;48.170;8.596;2023-04-03T00:23:04;14.75;;;10.02;;
21661;SDS011;10992;48.170;8.596;2023-04-03T00:25:31;12.52;;;9.85;;
21661;SDS011;10992;48.170;8.596;2023-04-03T00:27:58;13.82;;;10.15;;
21661;SDS011;10992;48.170;8.596;2023-04-03T00:30:25;12.45;;;10.35;;
21661;SDS011;10992;48.170;8.596;2023-04-03T00:32:52;15.95;;;11.73;;
21661;SDS011;10992;48.170;8.596;2023-04-03T00:35:20;14.13;;;10.73;;
21661;SDS011;10992;48.170;8.596;2023-04-03T00:37:50;13.90;;;10.90;;
21661;SDS011;10992;48.170;8.596;2023-04-03T00:40:18;13.45;;;10.75;;
21661;SDS011;10992;48.170;8.596;2023-04-03T00:42:47;12.75;;;10.05;;
21661;SDS011;10992;48.170;8.596;2023-04-03T00:45:24;12.38;;;10.35;;
21661;SDS011;10992;48.170;8.596;2023-04-03T00:47:58;15.65;;;10.77;;
21661;SDS011;10992;48.170;8.596;2023-04-03T00:50:28;12.48;;;10.30;;
21661;SDS011;10992;48.170;8.596;2023-04-03T00:52:55;14.38;;;10.75;;
21661;SDS011;10992;48.170;8.596;2023-04-03T00:55:23;14.50;;;11.15;;
21661;SDS011;10992;48.170;8.596;2023-04-03T00:57:51;14.45;;;11.35;;
21661;SDS011;10992;48.170;8.596;2023-04-03T01:00:19;13.55;;;10.95;;
21661;SDS011;10992;48.170;8.596;2023-04-03T01:02:49;16.42;;;11.88;;
21661;SDS011;10992;48.170;8.596;2023-04-03T01:05:18;14.13;;;11.32;;
21661;SDS011;10992;48.170;8.596;2023-04-03T01:07:47;14.35;;;11.52;;
21661;SDS011;10992;48.170;8.596;2023-04-03T01:10:17;12.55;;;11.05;;
21661;SDS011;10992;48.170;8.596;2023-04-03T01:12:48;14.18;;;11.82;;
21661;SDS011;10992;48.170;8.596;2023-04-03T01:15:24;13.07;;;11.23;;
21661;SDS011;10992;48.170;8.596;2023-04-03T01:17:58;16.08;;;11.60;;
21661;SDS011;10992;48.170;8.596;2023-04-03T01:28:08;17.48;;;12.05;;
21661;SDS011;10992;48.170;8.596;2023-04-03T01:30:43;17.33;;;12.77;;
21661;SDS011;10992;48.170;8.596;2023-04-03T01:33:17;14.07;;;10.77;;
21661;SDS011;10992;48.170;8.596;2023-04-03T01:35:46;13.93;;;11.30;;
21661;SDS011;10992;48.170;8.596;2023-04-03T01:38:13;17.30;;;12.15;;
21661;SDS011;10992;48.170;8.596;2023-04-03T01:40:39;14.05;;;11.50;;
21661;SDS011;10992;48.170;8.596;2023-04-03T01:43:06;16.92;;;12.23;;
21661;SDS011;10992;48.170;8.596;2023-04-03T01:45:33;18.90;;;13.10;;
21661;SDS011;10992;48.170;8.596;2023-04-03T01:48:01;16.45;;;12.18;;
21661;SDS011;10992;48.170;8.596;2023-04-03T01:50:28;16.15;;;11.48;;
21661;SDS011;10992;48.170;8.596;2023-04-03T01:52:55;17.42;;;12.25;;
21661;SDS011;10992;48.170;8.596;2023-04-03T01:55:22;15.20;;;12.10;;
21661;SDS011;10992;48.170;8.596;2023-04-03T01:57:49;16.02;;;11.95;;
21661;SDS011;10992;48.170;8.596;2023-04-03T02:00:16;17.70;;;12.52;;
21661;SDS011;10992;48.170;8.596;2023-04-03T02:02:43;15.93;;;11.80;;
21661;SDS011;10992;48.170;8.596;2023-04-03T02:05:10;16.10;;;12.20;;
21661;SDS011;10992;48.170;8.596;2023-04-03T02:07:37;15.77;;;11.85;;
21661;SDS011;10992;48.170;8.596;2023-04-03T02:10:04;16.02;;;12.18;;
21661;SDS011;10992;48.170;8.596;2023-04-03T02:12:31;15.45;;;11.80;;
21661;SDS011;10992;48.170;8.596;2023-04-03T02:14:59;17.35;;;11.85;;
21661;SDS011;10992;48.170;8.596;2023-04-03T02:17:27;13.88;;;11.25;;
21661;SDS011;10992;48.170;8.596;2023-04-03T02:19:53;18.77;;;12.63;;
21661;SDS011;10992;48.170;8.596;2023-04-03T02:22:21;16.88;;;11.77;;
21661;SDS011;10992;48.170;8.596;2023-04-03T02:24:48;16.33;;;12.13;;
21661;SDS011;10992;48.170;8.596;2023-04-03T02:27:15;15.57;;;11.90;;
21661;SDS011;10992;48.170;8.596;2023-04-03T02:29:42;15.40;;;11.27;;
21661;SDS011;10992;48.170;8.596;2023-04-03T02:32:09;18.35;;;11.77;;
21661;SDS011;10992;48.170;8.596;2023-04-03T02:34:36;17.80;;;11.98;;
21661;SDS011;10992;48.170;8.596;2023-04-03T02:37:05;17.08;;;12.18;;
21661;SDS011;10992;48.170;8.596;2023-04-03T02:39:32;17.40;;;12.70;;
21661;SDS011;10992;48.170;8.596;2023-04-03T02:41:59;17.67;;;12.07;;
21661;SDS011;10992;48.170;8.596;2023-04-03T02:44:27;15.45;;;12.38;;
21661;SDS011;10992;48.170;8.596;2023-04-03T02:46:54;21.25;;;12.63;;
21661;SDS011;10992;48.170;8.596;2023-04-03T02:49:22;17.38;;;12.88;;
21661;SDS011;10992;48.170;8.596;2023-04-03T02:51:49;17.23;;;12.68;;
21661;SDS011;10992;48.170;8.596;2023-04-03T02:54:17;17.52;;;12.93;;
21661;SDS011;10992;48.170;8.596;2023-04-03T02:56:49;14.90;;;11.88;;
21661;SDS011;10992;48.170;8.596;2023-04-03T02:59:16;17.55;;;12.90;;
21661;SDS011;10992;48.170;8.596;2023-04-03T03:01:43;16.17;;;12.52;;
21661;SDS011;10992;48.170;8.596;2023-04-03T03:04:10;17.38;;;12.27;;
21661;SDS011;10992;48.170;8.596;2023-04-03T03:06:37;18.85;;;12.57;;
21661;SDS011;10992;48.170;8.596;2023-04-03T03:09:04;16.50;;;11.82;;
21661;SDS011;10992;48.170;8.596;2023-04-03T03:11:31;17.98;;;12.60;;
21661;SDS011;10992;48.170;8.596;2023-04-03T03:13:58;18.55;;;13.45;;
21661;SDS011;10992;48.170;8.596;2023-04-03T03:16:25;18.58;;;12.65;;
21661;SDS011;10992;48.170;8.596;2023-04-03T03:18:52;18.20;;;12.02;;
21661;SDS011;10992;48.170;8.596;2023-04-03T03:21:20;18.67;;;13.38;;
21661;SDS011;10992;48.170;8.596;2023-04-03T03:23:47;17.20;;;12.52;;
21661;SDS011;10992;48.170;8.596;2023-04-03T03:26:14;14.82;;;12.18;;
21661;SDS011;10992;48.170;8.596;2023-04-03T03:28:41;20.92;;;13.05;;
21661;SDS011;10992;48.170;8.596;2023-04-03T03:31:08;18.50;;;13.07;;
21661;SDS011;10992;48.170;8.596;2023-04-03T03:33:37;18.13;;;11.85;;
21661;SDS011;10992;48.170;8.596;2023-04-03T03:36:04;17.52;;;12.95;;
21661;SDS011;10992;48.170;8.596;2023-04-03T03:38:32;15.88;;;11.90;;
21661;SDS011;10992;48.170;8.596;2023-04-03T03:41:00;18.10;;;11.80;;
21661;SDS011;10992;48.170;8.596;2023-04-03T03:43:29;18.88;;;12.80;;
21661;SDS011;10992;48.170;8.596;2023-04-03T03:45:56;16.92;;;12.20;;
21661;SDS011;10992;48.170;8.596;2023-04-03T03:48:24;16.90;;;11.98;;
21661;SDS011;10992;48.170;8.596;2023-04-03T03:50:51;18.30;;;12.23;;
21661;SDS011;10992;48.170;8.596;2023-04-03T03:53:23;21.27;;;14.20;;
21661;SDS011;10992;48.170;8.596;2023-04-03T03:55:52;17.38;;;12.15;;
21661;SDS011;10992;48.170;8.596;2023-04-03T03:58:22;20.30;;;11.07;;
21661;SDS011;10992;48.170;8.596;2023-04-03T04:00:49;17.52;;;11.20;;
21661;SDS011;10992;48.170;8.596;2023-04-03T04:03:16;20.15;;;11.20;;
21661;SDS011;10992;48.170;8.596;2023-04-03T04:05:46;15.20;;;10.75;;
21661;SDS011;10992;48.170;8.596;2023-04-03T04:08:13;16.17;;;11.57;;
21661;SDS011;10992;48.170;8.596;2023-04-03T04:10:40;18.80;;;12.57;;
21661;SDS011;10992;48.170;8.596;2023-04-03T04:13:07;13.05;;;10.65;;
21661;SDS011;10992;48.170;8.596;2023-04-03T04:15:34;14.23;;;11.40;;
21661;SDS011;10992;48.170;8.596;2023-04-03T04:18:02;17.98;;;11.05;;
21661;SDS011;10992;48.170;8.596;2023-04-03T04:20:30;14.48;;;10.93;;
21661;SDS011;10992;48.170;8.596;2023-04-03T04:22:57;14.73;;;10.40;;
21661;SDS011;10992;48.170;8.596;2023-04-03T04:25:25;16.40;;;11.60;;
21661;SDS011;10992;48.170;8.596;2023-04-03T04:27:52;15.40;;;12.20;;
21661;SDS011;10992;48.170;8.596;2023-04-03T04:30:19;13.73;;;10.93;;
21661;SDS011;10992;48.170;8.596;2023-04-03T04:32:48;14.93;;;11.30;;
21661;SDS011;10992;48.170;8.596;2023-04-03T04:35:15;14.40;;;10.10;;
21661;SDS011;10992;48.170;8.596;2023-04-03T04:37:45;15.75;;;11.25;;
21661;SDS011;10992;48.170;8.596;2023-04-03T04:40:13;13.57;;;10.10;;
21661;SDS011;10992;48.170;8.596;2023-04-03T04:42:40;13.57;;;10.63;;
21661;SDS011;10992;48.170;8.596;2023-04-03T04:45:07;15.63;;;11.00;;
21661;SDS011;10992;48.170;8.596;2023-04-03T04:47:38;13.35;;;10.93;;
21661;SDS011;10992;48.170;8.596;2023-04-03T04:50:07;16.45;;;11.27;;
21661;SDS011;10992;48.170;8.596;2023-04-03T04:52:34;13.90;;;10.80;;
21661;SDS011;10992;48.170;8.596;2023-04-03T04:55:02;16.40;;;11.40;;
21661;SDS011;10992;48.170;8.596;2023-04-03T04:57:29;12.50;;;10.23;;
21661;SDS011;10992;48.170;8.596;2023-04-03T04:59:58;13.55;;;10.23;;
21661;SDS011;10992;48.170;8.596;2023-04-03T05:02:25;14.95;;;11.43;;
21661;SDS011;10992;48.170;8.596;2023-04-03T05:04:53;13.48;;;9.55;;
21661;SDS011;10992;48.170;8.596;2023-04-03T05:07:25;16.90;;;11.35;;
21661;SDS011;10992;48.170;8.596;2023-04-03T05:09:52;19.08;;;11.32;;
21661;SDS011;10992;48.170;8.596;2023-04-03T05:12:19;14.25;;;10.82;;
21661;SDS011;10992;48.170;8.596;2023-04-03T05:14:52;13.50;;;10.27;;
21661;SDS011;10992;48.170;8.596;2023-04-03T05:17:19;15.15;;;11.05;;
21661;SDS011;10992;48.170;8.596;2023-04-03T05:19:50;13.68;;;10.70;;
21661;SDS011;10992;48.170;8.596;2023-04-03T05:22:19;14.55;;;10.15;;
21661;SDS011;10992;48.170;8.596;2023-04-03T05:24:46;13.32;;;9.95;;
21661;SDS011;10992;48.170;8.596;2023-04-03T05:27:14;12.50;;;9.35;;
21661;SDS011;10992;48.170;8.596;2023-04-03T05:29:44;11.45;;;9.77;;
21661;SDS011;10992;48.170;8.596;2023-04-03T05:32:16;12.82;;;9.93;;
21661;SDS011;10992;48.170;8.596;2023-04-03T05:34:47;14.20;;;10.73;;
21661;SDS011;10992;48.170;8.596;2023-04-03T05:37:14;17.27;;;10.38;;
21661;SDS011;10992;48.170;8.596;2023-04-03T05:39:41;11.95;;;10.18;;
21661;SDS011;10992;48.170;8.596;2023-04-03T05:42:10;10.68;;;8.88;;
21661;SDS011;10992;48.170;8.596;2023-04-03T05:44:38;12.82;;;9.38;;
21661;SDS011;10992;48.170;8.596;2023-04-03T05:47:05;12.27;;;8.65;;
21661;SDS011;10992;48.170;8.596;2023-04-03T05:49:32;11.45;;;8.60;;
21661;SDS011;10992;48.170;8.596;2023-04-03T05:51:59;11.57;;;9.25;;
21661;SDS011;10992;48.170;8.596;2023-04-03T05:54:30;16.10;;;10.15;;
21661;SDS011;10992;48.170;8.596;2023-04-03T05:57:13;10.50;;;8.13;;
21661;SDS011;10992;48.170;8.596;2023-04-03T05:59:42;10.80;;;8.98;;
21661;SDS011;10992;48.170;8.596;2023-04-03T06:02:12;13.40;;;8.60;;
21661;SDS011;10992;48.170;8.596;2023-04-03T06:04:40;10.93;;;8.60;;
21661;SDS011;10992;48.170;8.596;2023-04-03T06:07:10;11.95;;;8.45;;
21661;SDS011;10992;48.170;8.596;2023-04-03T06:09:39;11.00;;;8.32;;
21661;SDS011;10992;48.170;8.596;2023-04-03T06:12:06;10.20;;;7.75;;
21661;SDS011;10992;48.170;8.596;2023-04-03T06:14:34;10.57;;;8.30;;
21661;SDS011;10992;48.170;8.596;2023-04-03T06:17:02;8.02;;;6.50;;
21661;SDS011;10992;48.170;8.596;2023-04-03T06:19:29;9.43;;;6.95;;
21661;SDS011;10992;48.170;8.596;2023-04-03T06:21:56;7.95;;;5.90;;
21661;SDS011;10992;48.170;8.596;2023-04-03T06:24:23;8.88;;;6.93;;
21661;SDS011;10992;48.170;8.596;2023-04-03T06:26:53;9.90;;;7.82;;
21661;SDS011;10992;48.170;8.596;2023-04-03T06:29:20;10.38;;;7.68;;
21661;SDS011;10992;48.170;8.596;2023-04-03T06:31:47;9.40;;;7.70;;
21661;SDS011;10992;48.170;8.596;2023-04-03T06:34:15;11.15;;;7.55;;
21661;SDS011;10992;48.170;8.596;2023-04-03T06:36:44;9.75;;;7.30;;
21661;SDS011;10992;48.170;8.596;2023-04-03T06:39:16;10.30;;;8.13;;
21661;SDS011;10992;48.170;8.596;2023-04-03T06:41:45;11.85;;;8.60;;
21661;SDS011;10992;48.170;8.596;2023-04-03T06:44:12;7.93;;;7.13;;
21661;SDS011;10992;48.170;8.596;2023-04-03T06:46:42;9.02;;;7.18;;
21661;SDS011;10992;48.170;8.596;2023-04-03T06:49:10;14.95;;;8.20;;
21661;SDS011;10992;48.170;8.596;2023-04-03T06:51:37;8.45;;;7.10;;
21661;SDS011;10992;48.170;8.596;2023-04-03T06:54:04;9.95;;;8.20;;
21661;SDS011;10992;48.170;8.596;2023-04-03T06:56:32;11.60;;;7.75;;
21661;SDS011;10992;48.170;8.596;2023-04-03T06:58:59;9.57;;;7.47;;
21661;SDS011;10992;48.170;8.596;2023-04-03T07:01:27;10.05;;;7.05;;
21661;SDS011;10992;48.170;8.596;2023-04-03T07:03:56;9.15;;;6.30;;
21661;SDS011;10992;48.170;8.596;2023-04-03T07:06:23;8.75;;;6.90;;
21661;SDS011;10992;48.170;8.596;2023-04-03T07:08:53;8.80;;;6.80;;
21661;SDS011;10992;48.170;8.596;2023-04-03T07:11:23;7.97;;;7.00;;
21661;SDS011;10992;48.170;8.596;2023-04-03T07:13:50;8.23;;;6.63;;
21661;SDS011;10992;48.170;8.596;2023-04-03T07:16:17;8.52;;;6.68;;
21661;SDS011;10992;48.170;8.596;2023-04-03T07:18:45;10.20;;;7.15;;
21661;SDS011;10992;48.170;8.596;2023-04-03T07:21:12;8.75;;;6.40;;
21661;SDS011;10992;48.170;8.596;2023-04-03T07:23:39;7.63;;;5.85;;
21661;SDS011;10992;48.170;8.596;2023-04-03T07:26:06;8.00;;;6.18;;
21661;SDS011;10992;48.170;8.596;2023-04-03T07:28:34;7.05;;;5.80;;
21661;SDS011;10992;48.170;8.596;2023-04-03T07:31:05;7.03;;;5.82;;
21661;SDS011;10992;48.170;8.596;2023-04-03T07:33:35;6.72;;;5.78;;
21661;SDS011;10992;48.170;8.596;2023-04-03T07:36:04;7.47;;;5.90;;
21661;SDS011;10992;48.170;8.596;2023-04-03T07:38:36;9.57;;;6.40;;
21661;SDS011;10992;48.170;8.596;2023-04-03T07:41:03;8.02;;;5.68;;
21661;SDS011;10992;48.170;8.596;2023-04-03T07:43:30;7.00;;;5.80;;
21661;SDS011;10992;48.170;8.596;2023-04-03T07:45:57;6.85;;;5.72;;
21661;SDS011;10992;48.170;8.596;2023-04-03T07:48:27;5.30;;;4.25;;
21661;SDS011;10992;48.170;8.596;2023-04-03T07:50:58;5.68;;;4.20;;
21661;SDS011;10992;48.170;8.596;2023-04-03T07:53:30;4.35;;;3.95;;
21661;SDS011;10992;48.170;8.596;2023-04-03T07:55:58;4.25;;;3.53;;
21661;SDS011;10992;48.170;8.596;2023-04-03T07:58:25;5.47;;;3.70;;
21661;SDS011;10992;48.170;8.596;2023-04-03T08:00:53;5.55;;;3.50;;
21661;SDS011;10992;48.170;8.596;2023-04-03T08:03:20;3.70;;;3.40;;
21661;SDS011;10992;48.170;8.596;2023-04-03T08:05:48;3.97;;;3.22;;
21661;SDS011;10992;48.170;8.596;2023-04-03T08:08:16;3.45;;;2.72;;
21661;SDS011;10992;48.170;8.596;2023-04-03T08:10:50;4.45;;;3.40;;
21661;SDS011;10992;48.170;8.596;2023-04-03T08:13:18;3.30;;;2.88;;
21661;SDS011;10992;48.170;8.596;2023-04-03T08:15:48;4.30;;;2.58;;
21661;SDS011;10992;48.170;8.596;2023-04-03T08:18:15;2.30;;;1.90;;
21661;SDS011;10992;48.170;8.596;2023-04-03T08:20:43;2.90;;;2.53;;
21661;SDS011;10992;48.170;8.596;2023-04-03T08:23:10;2.92;;;2.35;;
21661;SDS011;10992;48.170;8.596;2023-04-03T08:25:38;3.00;;;2.55;;
21661;SDS011;10992;48.170;8.596;2023-04-03T08:28:06;2.97;;;2.60;;
21661;SDS011;10992;48.170;8.596;2023-04-03T08:30:33;2.90;;;2.60;;
21661;SDS011;10992;48.170;8.596;2023-04-03T08:33:01;2.67;;;2.47;;
21661;SDS011;10992;48.170;8.596;2023-04-03T08:35:28;2.35;;;2.15;;
21661;SDS011;10992;48.170;8.596;2023-04-03T08:37:55;4.72;;;2.33;;
21661;SDS011;10992;48.170;8.596;2023-04-03T08:40:23;2.90;;;2.47;;
21661;SDS011;10992;48.170;8.596;2023-04-03T08:45:48;3.33;;;2.75;;
21661;SDS011;10992;48.170;8.596;2023-04-03T08:48:23;2.72;;;2.40;;
21661;SDS011;10992;48.170;8.596;2023-04-03T08:50:59;3.28;;;2.53;;
21661;SDS011;10992;48.170;8.596;2023-04-03T08:53:39;3.75;;;2.80;;
21661;SDS011;10992;48.170;8.596;2023-04-03T08:56:09;3.10;;;2.53;;
21661;SDS011;10992;48.170;8.596;2023-04-03T08:58:41;3.83;;;2.47;;
21661;SDS011;10992;48.170;8.596;2023-04-03T09:01:19;3.58;;;2.90;;
21661;SDS011;10992;48.170;8.596;2023-04-03T09:03:48;4.80;;;3.10;;
21661;SDS011;10992;48.170;8.596;2023-04-03T09:06:19;4.70;;;3.33;;
21661;SDS011;10992;48.170;8.596;2023-04-03T09:12:04;3.38;;;3.03;;
21661;SDS011;10992;48.170;8.596;2023-04-03T09:14:38;3.95;;;3.33;;
21661;SDS011;10992;48.170;8.596;2023-04-03T09:17:35;4.93;;;4.20;;
21661;SDS011;10992;48.170;8.596;2023-04-03T09:20:14;6.53;;;3.80;;
21661;SDS011;10992;48.170;8.596;2023-04-03T09:23:09;3.70;;;2.60;;
21661;SDS011;10992;48.170;8.596;2023-04-03T09:25:51;3.33;;;2.97;;
21661;SDS011;10992;48.170;8.596;2023-04-03T09:28:24;4.03;;;2.67;;
21661;SDS011;10992;48.170;8.596;2023-04-03T09:30:52;3.88;;;3.47;;
21661;SDS011;10992;48.170;8.596;2023-04-03T09:33:19;3.40;;;3.10;;
21661;SDS011;10992;48.170;8.596;2023-04-03T09:35:47;6.00;;;3.03;;
21661;SDS011;10992;48.170;8.596;2023-04-03T09:38:17;5.38;;;3.08;;
21661;SDS011;10992;48.170;8.596;2023-04-03T09:40:47;8.43;;;3.83;;
21661;SDS011;10992;48.170;8.596;2023-04-03T09:43:37;5.07;;;3.33;;
21661;SDS011;10992;48.170;8.596;2023-04-03T09:49:01;3.67;;;2.83;;
21661;SDS011;10992;48.170;8.596;2023-04-03T09:51:34;5.20;;;2.83;;
21661;SDS011;10992;48.170;8.596;2023-04-03T09:54:24;2.50;;;2.25;;
21661;SDS011;10992;48.170;8.596;2023-04-03T09:57:08;4.40;;;3.10;;
21661;SDS011;10992;48.170;8.596;2023-04-03T09:59:46;3.13;;;2.67;;
21661;SDS011;10992;48.170;8.596;2023-04-03T10:04:54;4.32;;;3.00;;
21661;SDS011;10992;48.170;8.596;2023-04-03T10:07:36;4.70;;;3.10;;
21661;SDS011;10992;48.170;8.596;2023-04-03T10:12:44;4.78;;;3.00;;
21661;SDS011;10992;48.170;8.596;2023-04-03T10:15:15;4.05;;;2.92;;
21661;SDS011;10992;48.170;8.596;2023-04-03T10:18:02;4.47;;;3.05;;
21661;SDS011;10992;48.170;8.596;2023-04-03T10:20:50;3.45;;;3.03;;
21661;SDS011;10992;48.170;8.596;2023-04-03T10:23:23;3.50;;;2.72;;
21661;SDS011;10992;48.170;8.596;2023-04-03T10:31:33;4.72;;;3.15;;
21661;SDS011;10992;48.170;8.596;2023-04-03T10:34:20;3.65;;;2.80;;
21661;SDS011;10992;48.170;8.596;2023-04-03T10:44:55;5.35;;;3.05;;
21661;SDS011;10992;48.170;8.596;2023-04-03T10:50:38;3.50;;;3.20;;
21661;SDS011;10992;48.170;8.596;2023-04-03T10:53:31;4.28;;;2.88;;
21661;SDS011;10992;48.170;8.596;2023-04-03T10:56:30;3.90;;;3.20;;
21661;SDS011;10992;48.170;8.596;2023-04-03T11:01:42;3.53;;;2.90;;
21661;SDS011;10992;48.170;8.596;2023-04-03T11:04:14;4.93;;;3.15;;
21661;SDS011;10992;48.170;8.596;2023-04-03T11:06:57;4.07;;;3.22;;
21661;SDS011;10992;48.170;8.596;2023-04-03T11:09:26;4.35;;;3.33;;
21661;SDS011;10992;48.170;8.596;2023-04-03T11:12:00;5.72;;;4.10;;
21661;SDS011;10992;48.170;8.596;2023-04-03T11:14:36;4.47;;;3.00;;
21661;SDS011;10992;48.170;8.596;2023-04-03T11:17:19;6.75;;;4.05;;
21661;SDS011;10992;48.170;8.596;2023-04-03T11:22:51;6.35;;;3.75;;
21661;SDS011;10992;48.170;8.596;2023-04-03T11:25:25;4.13;;;2.90;;
21661;SDS011;10992;48.170;8.596;2023-04-03T11:27:57;3.53;;;2.92;;
21661;SDS011;10992;48.170;8.596;2023-04-03T11:36:28;3.75;;;3.22;;
21661;SDS011;10992;48.170;8.596;2023-04-03T11:41:51;5.78;;;3.33;;
21661;SDS011;10992;48.170;8.596;2023-04-03T11:44:37;4.63;;;3.30;;
21661;SDS011;10992;48.170;8.596;2023-04-03T11:47:05;4.60;;;2.95;;
21661;SDS011;10992;48.170;8.596;2023-04-03T11:49:51;5.53;;;3.08;;
21661;SDS011;10992;48.170;8.596;2023-04-03T12:05:50;5.05;;;2.90;;
21661;SDS011;10992;48.170;8.596;2023-04-03T12:08:28;6.07;;;3.60;;
21661;SDS011;10992;48.170;8.596;2023-04-03T12:13:39;2.80;;;2.50;;
21661;SDS011;10992;48.170;8.596;2023-04-03T12:19:03;4.10;;;2.72;;
21661;SDS011;10992;48.170;8.596;2023-04-03T12:24:29;3.17;;;2.63;;
21661;SDS011;10992;48.170;8.596;2023-04-03T12:37:40;4.55;;;3.30;;
21661;SDS011;10992;48.170;8.596;2023-04-03T12:43:50;4.68;;;3.20;;
21661;SDS011;10992;48.170;8.596;2023-04-03T12:46:36;3.20;;;2.58;;
21661;SDS011;10992;48.170;8.596;2023-04-03T12:49:26;4.22;;;2.88;;
21661;SDS011;10992;48.170;8.596;2023-04-03T12:51:56;5.32;;;3.10;;
21661;SDS011;10992;48.170;8.596;2023-04-03T12:59:47;5.60;;;3.38;;
21661;SDS011;10992;48.170;8.596;2023-04-03T13:02:25;4.63;;;3.05;;
21661;SDS011;10992;48.170;8.596;2023-04-03T13:04:55;3.90;;;3.05;;
21661;SDS011;10992;48.170;8.596;2023-04-03T13:07:31;4.28;;;3.20;;
21661;SDS011;10992;48.170;8.596;2023-04-03T13:12:27;3.75;;;3.38;;
21661;SDS011;10992;48.170;8.596;2023-04-03T13:14:58;6.43;;;5.20;;
21661;SDS011;10992;48.170;8.596;2023-04-03T13:17:27;5.60;;;2.90;;
21661;SDS011;10992;48.170;8.596;2023-04-03T13:19:54;3.47;;;2.97;;
21661;SDS011;10992;48.170;8.596;2023-04-03T13:25:06;3.38;;;2.60;;
21661;SDS011;10992;48.170;8.596;2023-04-03T13:27:37;4.68;;;3.20;;
21661;SDS011;10992;48.170;8.596;2023-04-03T13:30:05;3.95;;;3.25;;
21661;SDS011;10992;48.170;8.596;2023-04-03T13:32:33;4.32;;;2.63;;
21661;SDS011;10992;48.170;8.596;2023-04-03T13:35:01;3.72;;;2.85;;
21661;SDS011;10992;48.170;8.596;2023-04-03T13:37:54;3.80;;;2.72;;
21661;SDS011;10992;48.170;8.596;2023-04-03T13:40:22;3.60;;;2.60;;
21661;SDS011;10992;48.170;8.596;2023-04-03T13:43:03;3.92;;;2.97;;
21661;SDS011;10992;48.170;8.596;2023-04-03T13:45:53;4.05;;;2.75;;
21661;SDS011;10992;48.170;8.596;2023-04-03T13:48:22;4.43;;;2.90;;
21661;SDS011;10992;48.170;8.596;2023-04-03T13:50:55;3.75;;;2.63;;
21661;SDS011;10992;48.170;8.596;2023-04-03T13:53:26;4.75;;;2.50;;
21661;SDS011;10992;48.170;8.596;2023-04-03T13:58:29;3.78;;;2.75;;
21661;SDS011;10992;48.170;8.596;2023-04-03T14:01:14;5.55;;;3.88;;
21661;SDS011;10992;48.170;8.596;2023-04-03T14:03:57;4.82;;;3.15;;
21661;SDS011;10992;48.170;8.596;2023-04-03T14:06:25;7.07;;;4.15;;
21661;SDS011;10992;48.170;8.596;2023-04-03T14:08:53;5.03;;;3.17;;
21661;SDS011;10992;48.170;8.596;2023-04-03T14:11:22;4.38;;;2.40;;
21661;SDS011;10992;48.170;8.596;2023-04-03T14:13:55;3.80;;;2.72;;
21661;SDS011;10992;48.170;8.596;2023-04-03T14:16:27;3.53;;;2.55;;
21661;SDS011;10992;48.170;8.596;2023-04-03T14:18:57;3.97;;;2.88;;
21661;SDS011;10992;48.170;8.596;2023-04-03T14:21:24;5.47;;;2.88;;
21661;SDS011;10992;48.170;8.596;2023-04-03T14:23:52;3.17;;;2.50;;
21661;SDS011;10992;48.170;8.596;2023-04-03T14:26:20;3.97;;;2.70;;
21661;SDS011;10992;48.170;8.596;2023-04-03T14:28:50;6.05;;;2.80;;
21661;SDS011;10992;48.170;8.596;2023-04-03T14:31:19;3.03;;;2.50;;
21661;SDS011;10992;48.170;8.596;2023-04-03T14:33:47;6.55;;;2.95;;
21661;SDS011;10992;48.170;8.596;2023-04-03T14:36:16;3.75;;;2.42;;
21661;SDS011;10992;48.170;8.596;2023-04-03T14:38:46;2.60;;;2.40;;
21661;SDS011;10992;48.170;8.596;2023-04-03T14:41:15;2.83;;;2.55;;
21661;SDS011;10992;48.170;8.596;2023-04-03T14:43:44;4.07;;;3.00;;
21661;SDS011;10992;48.170;8.596;2023-04-03T14:46:12;4.80;;;2.72;;
21661;SDS011;10992;48.170;8.596;2023-04-03T14:48:46;3.47;;;2.60;;
21661;SDS011;10992;48.170;8.596;2023-04-03T14:51:13;3.08;;;2.50;;
21661;SDS011;10992;48.170;8.596;2023-04-03T14:53:42;3.25;;;2.40;;
21661;SDS011;10992;48.170;8.596;2023-04-03T14:56:14;6.15;;;3.78;;
21661;SDS011;10992;48.170;8.596;2023-04-03T14:58:44;3.42;;;2.50;;
21661;SDS011;10992;48.170;8.596;2023-04-03T15:01:15;3.58;;;2.53;;
21661;SDS011;10992;48.170;8.596;2023-04-03T15:03:43;2.28;;;2.00;;
21661;SDS011;10992;48.170;8.596;2023-04-03T15:06:11;3.38;;;2.45;;
21661;SDS011;10992;48.170;8.596;2023-04-03T15:08:40;4.75;;;2.17;;
21661;SDS011;10992;48.170;8.596;2023-04-03T15:11:09;4.60;;;2.80;;
21661;SDS011;10992;48.170;8.596;2023-04-03T15:13:37;4.72;;;2.88;;
21661;SDS011;10992;48.170;8.596;2023-04-03T15:16:08;3.28;;;2.15;;
21661;SDS011;10992;48.170;8.596;2023-04-03T15:18:42;2.95;;;2.50;;
21661;SDS011;10992;48.170;8.596;2023-04-03T15:21:10;4.85;;;2.58;;
21661;SDS011;10992;48.170;8.596;2023-04-03T15:23:38;3.35;;;2.28;;
21661;SDS011;10992;48.170;8.596;2023-04-03T15:26:05;3.33;;;2.40;;
21661;SDS011;10992;48.170;8.596;2023-04-03T15:28:33;3.53;;;2.72;;
21661;SDS011;10992;48.170;8.596;2023-04-03T15:31:05;4.65;;;3.00;;
21661;SDS011;10992;48.170;8.596;2023-04-03T15:33:33;4.75;;;2.35;;
21661;SDS011;10992;48.170;8.596;2023-04-03T15:36:02;4.38;;;2.58;;
21661;SDS011;10992;48.170;8.596;2023-04-03T15:38:37;7.68;;;3.55;;
21661;SDS011;10992;48.170;8.596;2023-04-03T15:41:04;5.55;;;3.80;;
21661;SDS011;10992;48.170;8.596;2023-04-03T15:43:32;6.68;;;3.83;;
21661;SDS011;10992;48.170;8.596;2023-04-03T15:46:00;5.35;;;2.40;;
21661;SDS011;10992;48.170;8.596;2023-04-03T15:48:28;5.75;;;2.70;;
21661;SDS011;10992;48.170;8.596;2023-04-03T15:50:55;3.28;;;2.80;;
21661;SDS011;10992;48.170;8.596;2023-04-03T15:53:24;4.90;;;2.90;;
21661;SDS011;10992;48.170;8.596;2023-04-03T15:55:52;3.80;;;2.58;;
21661;SDS011;10992;48.170;8.596;2023-04-03T15:58:19;3.47;;;2.42;;
21661;SDS011;10992;48.170;8.596;2023-04-03T16:00:46;3.85;;;2.28;;
21661;SDS011;10992;48.170;8.596;2023-04-03T16:03:17;4.00;;;2.30;;
21661;SDS011;10992;48.170;8.596;2023-04-03T16:05:46;3.92;;;2.30;;
21661;SDS011;10992;48.170;8.596;2023-04-03T16:08:14;3.72;;;2.63;;
21661;SDS011;10992;48.170;8.596;2023-04-03T16:10:42;3.22;;;2.70;;
21661;SDS011;10992;48.170;8.596;2023-04-03T16:13:11;4.80;;;2.40;;
21661;SDS011;10992;48.170;8.596;2023-04-03T16:15:39;3.38;;;2.58;;
21661;SDS011;10992;48.170;8.596;2023-04-03T16:18:07;4.80;;;2.85;;
21661;SDS011;10992;48.170;8.596;2023-04-03T16:20:34;4.50;;;3.03;;
21661;SDS011;10992;48.170;8.596;2023-04-03T16:23:02;5.20;;;3.10;;
21661;SDS011;10992;48.170;8.596;2023-04-03T16:25:29;7.05;;;3.90;;
21661;SDS011;10992;48.170;8.596;2023-04-03T16:27:57;4.10;;;2.83;;
21661;SDS011;10992;48.170;8.596;2023-04-03T16:30:24;3.45;;;2.55;;
21661;SDS011;10992;48.170;8.596;2023-04-03T16:32:51;2.67;;;2.22;;
21661;SDS011;10992;48.170;8.596;2023-04-03T16:35:18;4.82;;;2.67;;
21661;SDS011;10992;48.170;8.596;2023-04-03T16:37:44;3.83;;;2.33;;